Time;durP1;ratioP1;P1;durP2;ratioP2;P2;SDS_P1;SDS_P2;PMS_P1;PMS_P2;Temp;Humidity;BMP_temperature;BMP_pressure;BME280_temperature;BME280_humidity;BME280_pressure;Samples;Min_cycle;Max_cycle;Signal;HPM_P1;HPM_P2
2024/01/31 00:00:33;;;;;;;6.10;5.50;;;8.40;99.90;;;;;;5009197;28;20281;-73
2024/01/31 00:03:01;;;;;;;5.87;5.30;;;8.40;99.90;;;;;;5009209;28;20300;-73
2024/01/31 00:05:28;;;;;;;5.87;5.20;;;8.60;99.90;;;;;;5008973;28;20663;-73
2024/01/31 00:07:55;;;;;;;6.57;5.53;;;8.60;99.90;;;;;;5009280;28;20209;-73
2024/01/31 00:10:22;;;;;;;6.03;4.97;;;8.50;99.90;;;;;;5019409;28;20288;-73
2024/01/31 00:12:49;;;;;;;6.27;5.73;;;8.50;99.90;;;;;;5028933;28;20686;-73
2024/01/31 00:15:16;;;;;;;6.57;5.97;;;8.50;99.90;;;;;;5026852;28;20244;-73
2024/01/31 00:17:43;;;;;;;6.63;5.90;;;8.50;99.90;;;;;;5009252;28;20560;-74
2024/01/31 00:20:13;;;;;;;6.60;5.97;;;8.50;99.90;;;;;;5028025;28;20319;-74
2024/01/31 00:22:40;;;;;;;6.87;5.70;;;8.50;99.90;;;;;;5028416;28;20200;-74
2024/01/31 00:25:07;;;;;;;6.37;5.30;;;8.50;99.90;;;;;;5018232;28;20241;-74
2024/01/31 00:27:34;;;;;;;8.90;5.40;;;8.50;99.90;;;;;;5008576;28;20247;-73
2024/01/31 00:30:01;;;;;;;10.30;5.27;;;8.50;99.90;;;;;;5009072;28;20293;-73
2024/01/31 00:32:28;;;;;;;8.87;4.67;;;8.60;99.90;;;;;;5017283;28;20252;-75
2024/01/31 00:34:55;;;;;;;4.23;3.67;;;8.60;99.90;;;;;;5011680;28;20309;-72
2024/01/31 00:37:23;;;;;;;4.67;4.20;;;8.60;99.90;;;;;;5008438;28;20210;-72
2024/01/31 00:39:50;;;;;;;4.37;4.03;;;8.60;99.90;;;;;;5008385;28;20209;-72
2024/01/31 00:42:17;;;;;;;6.00;4.40;;;8.60;99.90;;;;;;5008666;28;20245;-72
2024/01/31 00:44:43;;;;;;;5.50;4.20;;;8.70;99.90;;;;;;5008473;28;20241;-72
2024/01/31 00:47:10;;;;;;;4.37;4.07;;;8.60;99.90;;;;;;5017925;28;20310;-72
2024/01/31 00:49:38;;;;;;;5.00;4.37;;;8.60;99.90;;;;;;5008041;28;20297;-72
2024/01/31 00:52:05;;;;;;;4.30;4.00;;;8.60;99.90;;;;;;5007762;28;20292;-72
2024/01/31 00:54:33;;;;;;;4.53;4.23;;;8.60;99.90;;;;;;5008474;28;20308;-71
2024/01/31 00:57:01;;;;;;;5.60;4.50;;;8.60;99.90;;;;;;5008352;28;20280;-71
2024/01/31 00:59:28;;;;;;;3.77;3.57;;;8.60;99.90;;;;;;5008181;28;20205;-73
2024/01/31 01:01:54;;;;;;;5.07;4.07;;;8.60;99.90;;;;;;5008203;28;20212;-71
2024/01/31 01:04:21;;;;;;;4.00;3.70;;;8.60;99.90;;;;;;5008455;28;20209;-72
2024/01/31 01:06:48;;;;;;;4.30;3.90;;;8.60;99.90;;;;;;5007458;28;20824;-72
2024/01/31 01:09:15;;;;;;;4.57;4.17;;;8.60;99.90;;;;;;5007774;28;20324;-72
2024/01/31 01:11:43;;;;;;;5.97;4.10;;;8.70;99.90;;;;;;5007359;28;20293;-71
2024/01/31 01:14:10;;;;;;;3.93;3.63;;;8.70;99.90;;;;;;5008254;28;20635;-72
2024/01/31 01:16:37;;;;;;;3.60;3.30;;;8.70;99.90;;;;;;5007675;28;20221;-72
2024/01/31 01:19:04;;;;;;;3.77;3.57;;;8.70;99.90;;;;;;5007961;28;20288;-72
2024/01/31 01:21:32;;;;;;;3.97;3.57;;;8.70;99.90;;;;;;5007964;28;20209;-72
2024/01/31 01:23:59;;;;;;;4.43;3.73;;;8.70;99.90;;;;;;5007896;28;20244;-72
2024/01/31 01:26:26;;;;;;;4.30;3.60;;;8.60;99.90;;;;;;5007259;28;20320;-72
2024/01/31 01:28:54;;;;;;;3.43;3.23;;;8.60;99.90;;;;;;5007236;28;20205;-72
2024/01/31 01:31:21;;;;;;;3.43;3.13;;;8.60;99.90;;;;;;5020797;28;20224;-72
2024/01/31 01:33:48;;;;;;;3.87;3.27;;;8.60;99.90;;;;;;5026880;28;20303;-71
2024/01/31 01:36:16;;;;;;;5.83;3.20;;;8.60;99.90;;;;;;5026933;28;20231;-71
2024/01/31 01:38:42;;;;;;;3.53;3.23;;;8.70;99.90;;;;;;5026847;28;20208;-71
2024/01/31 01:41:09;;;;;;;3.50;3.17;;;8.70;99.90;;;;;;5027298;28;20320;-71
2024/01/31 01:43:36;;;;;;;3.00;2.80;;;8.70;99.90;;;;;;5027019;28;20295;-71
2024/01/31 01:46:15;;;;;;;2.80;2.60;;;8.70;99.90;;;;;;5013920;28;20292;-71
2024/01/31 01:48:46;;;;;;;2.83;2.63;;;8.80;99.90;;;;;;5007314;28;20300;-71
2024/01/31 01:51:16;;;;;;;2.70;2.50;;;8.80;99.90;;;;;;5007413;28;20245;-71
2024/01/31 01:53:44;;;;;;;2.77;2.47;;;8.80;99.90;;;;;;5008076;28;20273;-71
2024/01/31 01:56:12;;;;;;;3.30;2.30;;;8.80;99.90;;;;;;5026091;28;20233;-71
2024/01/31 01:58:39;;;;;;;2.40;2.20;;;8.80;99.90;;;;;;5026576;28;20288;-71
2024/01/31 02:01:09;;;;;;;2.13;1.97;;;8.70;99.90;;;;;;5026751;28;20205;-70
2024/01/31 02:03:36;;;;;;;1.33;1.30;;;8.70;99.90;;;;;;5011989;28;20824;-70
2024/01/31 02:06:03;;;;;;;1.20;1.20;;;8.70;99.90;;;;;;5006701;28;20745;-70
2024/01/31 02:08:31;;;;;;;1.87;1.77;;;8.60;99.90;;;;;;5006630;28;20312;-71
2024/01/31 02:10:58;;;;;;;1.87;1.77;;;8.60;99.90;;;;;;5007150;28;20301;-71
2024/01/31 02:13:25;;;;;;;1.87;1.77;;;8.50;99.90;;;;;;5006800;28;20928;-71
2024/01/31 02:15:53;;;;;;;1.77;1.67;;;8.50;99.90;;;;;;5006588;28;20240;-71
2024/01/31 02:18:22;;;;;;;1.70;1.60;;;8.40;99.90;;;;;;5006801;28;20220;-71
2024/01/31 02:20:49;;;;;;;1.80;1.70;;;8.40;99.90;;;;;;5020518;28;20205;-71
2024/01/31 02:23:18;;;;;;;1.87;1.77;;;8.40;99.90;;;;;;5026325;28;20671;-71
2024/01/31 02:25:46;;;;;;;1.60;1.50;;;8.40;99.90;;;;;;4987365;28;20296;-71
2024/01/31 02:28:13;;;;;;;1.50;1.40;;;8.30;99.90;;;;;;4987125;28;20669;-71
2024/01/31 02:30:40;;;;;;;1.80;1.70;;;8.30;99.90;;;;;;4986726;28;20748;-71
2024/01/31 02:33:07;;;;;;;1.57;1.50;;;8.30;99.90;;;;;;4987275;28;20214;-71
2024/01/31 02:35:35;;;;;;;1.57;1.47;;;8.30;99.90;;;;;;4987274;28;20216;-71
2024/01/31 02:38:02;;;;;;;1.50;1.43;;;8.20;99.90;;;;;;4986732;28;20333;-71
2024/01/31 02:40:30;;;;;;;1.53;1.43;;;8.20;99.90;;;;;;4986938;28;20217;-71
2024/01/31 02:42:58;;;;;;;1.50;1.40;;;8.20;99.90;;;;;;4987417;28;20284;-72
2024/01/31 02:45:25;;;;;;;1.60;1.50;;;8.20;99.90;;;;;;4986926;28;20245;-72
2024/01/31 02:47:52;;;;;;;1.40;1.40;;;8.20;99.90;;;;;;4986871;28;20265;-73
2024/01/31 02:50:19;;;;;;;1.40;1.40;;;8.20;99.90;;;;;;4986950;28;20261;-72
2024/01/31 02:52:46;;;;;;;1.40;1.13;;;8.20;99.90;;;;;;5003745;28;20292;-72
2024/01/31 02:55:13;;;;;;;1.77;1.10;;;8.10;99.90;;;;;;4998318;28;20213;-72
2024/01/31 02:57:41;;;;;;;1.97;1.30;;;8.10;99.90;;;;;;5009419;28;20210;-72
2024/01/31 03:00:11;;;;;;;1.30;1.13;;;8.10;99.90;;;;;;5010354;28;20248;-73
2024/01/31 03:02:39;;;;;;;1.23;1.13;;;8.10;99.90;;;;;;5009821;28;21037;-72
2024/01/31 03:05:07;;;;;;;1.30;1.10;;;8.10;99.90;;;;;;4999356;28;20242;-72
2024/01/31 03:07:34;;;;;;;1.00;1.00;;;8.00;99.90;;;;;;4990472;28;20234;-73
2024/01/31 03:10:01;;;;;;;1.03;1.03;;;8.00;99.90;;;;;;5007725;28;20219;-73
2024/01/31 03:12:28;;;;;;;1.07;1.00;;;8.00;99.90;;;;;;5009812;28;20643;-73
2024/01/31 03:14:56;;;;;;;0.97;0.70;;;8.00;99.90;;;;;;5010335;28;20385;-73
2024/01/31 03:17:23;;;;;;;0.83;0.80;;;7.90;99.90;;;;;;5009295;28;20224;-72
2024/01/31 03:19:50;;;;;;;0.80;0.80;;;7.90;99.90;;;;;;5003255;28;20206;-74
2024/01/31 03:22:17;;;;;;;0.50;0.50;;;7.90;99.90;;;;;;4989238;28;20285;-74
2024/01/31 03:24:44;;;;;;;0.90;0.57;;;7.90;99.90;;;;;;4989714;28;20249;-73
2024/01/31 03:27:11;;;;;;;0.37;0.37;;;7.90;99.90;;;;;;4988554;28;20743;-73
2024/01/31 03:29:38;;;;;;;0.50;0.50;;;7.80;99.90;;;;;;4987430;28;20309;-73
2024/01/31 03:32:06;;;;;;;1.90;0.40;;;7.80;99.90;;;;;;4988217;28;20237;-72
2024/01/31 03:34:33;;;;;;;1.07;0.60;;;7.80;99.90;;;;;;4988463;28;20321;-73
2024/01/31 03:37:02;;;;;;;0.60;0.60;;;7.80;99.90;;;;;;4988020;28;20298;-73
2024/01/31 03:39:29;;;;;;;0.50;0.47;;;7.70;99.90;;;;;;4968838;28;20211;-73
2024/01/31 03:41:56;;;;;;;0.30;0.30;;;7.70;99.90;;;;;;4968604;28;20305;-73
2024/01/31 03:44:23;;;;;;;0.50;0.50;;;7.70;99.90;;;;;;5005355;28;20233;-73
2024/01/31 03:46:50;;;;;;;0.70;0.53;;;7.70;99.90;;;;;;5007313;28;20305;-73
2024/01/31 03:49:18;;;;;;;0.70;0.70;;;7.70;99.90;;;;;;5007088;28;20739;-74
2024/01/31 03:51:45;;;;;;;1.33;0.90;;;7.60;99.90;;;;;;5006868;28;20220;-74
2024/01/31 03:54:12;;;;;;;0.80;0.80;;;7.60;99.90;;;;;;4965279;28;20215;-74
2024/01/31 03:56:39;;;;;;;0.77;0.77;;;7.60;99.90;;;;;;4949688;28;20235;-73
2024/01/31 03:59:08;;;;;;;0.60;0.60;;;7.50;99.90;;;;;;4950088;28;20230;-73
2024/01/31 04:01:35;;;;;;;0.70;0.70;;;7.50;99.90;;;;;;4950015;28;20621;-73
2024/01/31 04:04:03;;;;;;;2.77;1.27;;;7.50;99.90;;;;;;4950797;29;20211;-73
2024/01/31 04:06:31;;;;;;;1.37;1.07;;;7.50;99.90;;;;;;4950537;28;20237;-73
2024/01/31 04:08:58;;;;;;;0.90;0.90;;;7.50;99.90;;;;;;4950749;28;20358;-73
2024/01/31 04:11:25;;;;;;;1.97;1.10;;;7.50;99.90;;;;;;4950507;29;20718;-73
2024/01/31 04:13:52;;;;;;;0.80;0.80;;;7.50;99.90;;;;;;4950597;29;20298;-73
2024/01/31 04:16:19;;;;;;;0.60;0.60;;;7.50;99.90;;;;;;4950476;29;20235;-73
2024/01/31 04:18:46;;;;;;;0.77;0.77;;;7.50;99.90;;;;;;4950303;29;20754;-73
2024/01/31 04:21:19;;;;;;;0.80;0.80;;;7.50;99.90;;;;;;4950626;29;20257;-73
2024/01/31 04:23:47;;;;;;;1.00;1.00;;;7.40;99.90;;;;;;4950192;29;20283;-73
2024/01/31 04:26:15;;;;;;;0.53;0.53;;;7.40;99.90;;;;;;4950148;28;20231;-73
2024/01/31 04:28:41;;;;;;;0.90;0.63;;;7.40;99.90;;;;;;4949989;29;20322;-73
2024/01/31 04:31:14;;;;;;;2.30;0.80;;;7.40;99.90;;;;;;4950123;29;20306;-74
2024/01/31 04:33:41;;;;;;;0.97;0.60;;;7.30;99.90;;;;;;4950173;29;20215;-73
2024/01/31 04:36:08;;;;;;;2.43;0.80;;;7.30;99.90;;;;;;4949930;28;20745;-73
2024/01/31 04:38:35;;;;;;;0.60;0.60;;;7.30;99.90;;;;;;4949477;28;20214;-73
2024/01/31 04:41:04;;;;;;;0.97;0.70;;;7.30;99.90;;;;;;4950481;29;20218;-74
2024/01/31 04:43:31;;;;;;;0.60;0.60;;;7.30;99.90;;;;;;4949938;29;20299;-73
2024/01/31 04:45:58;;;;;;;0.60;0.60;;;7.20;99.90;;;;;;4950053;29;20295;-73
2024/01/31 04:48:25;;;;;;;0.87;0.87;;;7.20;99.90;;;;;;4949907;29;20326;-73
2024/01/31 04:50:51;;;;;;;0.67;0.60;;;7.20;99.90;;;;;;4949686;29;20246;-73
2024/01/31 04:53:18;;;;;;;0.63;0.63;;;7.10;99.90;;;;;;4973695;28;20308;-73
2024/01/31 04:55:45;;;;;;;1.10;0.40;;;7.10;99.90;;;;;;4988130;28;20214;-73
2024/01/31 04:58:14;;;;;;;0.30;0.30;;;7.10;99.90;;;;;;4972961;28;20301;-73
2024/01/31 05:00:41;;;;;;;0.97;0.37;;;7.10;99.90;;;;;;4968580;28;20206;-73
2024/01/31 05:03:08;;;;;;;1.17;0.40;;;7.10;99.90;;;;;;4968647;28;20309;-73
2024/01/31 05:05:37;;;;;;;0.47;0.20;;;7.10;99.90;;;;;;4968668;28;20625;-73
2024/01/31 05:08:04;;;;;;;0.77;0.40;;;7.00;99.90;;;;;;4968741;28;20363;-73
2024/01/31 05:10:33;;;;;;;1.27;0.60;;;7.00;99.90;;;;;;4968735;28;20242;-73
2024/01/31 05:13:00;;;;;;;0.77;0.77;;;6.90;99.90;;;;;;4975407;28;20565;-73
2024/01/31 05:15:30;;;;;;;1.80;1.70;;;6.80;99.90;;;;;;4987845;28;20302;-73
2024/01/31 05:17:58;;;;;;;0.40;0.30;;;6.70;99.90;;;;;;4988128;28;20187;-73
2024/01/31 05:20:24;;;;;;;1.33;0.70;;;6.70;99.90;;;;;;4987221;28;20306;-73
2024/01/31 05:22:52;;;;;;;0.43;0.43;;;6.60;99.90;;;;;;4987711;28;20208;-73
2024/01/31 05:25:19;;;;;;;0.80;0.80;;;6.60;99.90;;;;;;4987693;28;20312;-73
2024/01/31 05:27:46;;;;;;;0.90;0.90;;;6.60;99.90;;;;;;4987443;28;20233;-73
2024/01/31 05:30:14;;;;;;;0.40;0.40;;;6.60;99.90;;;;;;4987494;28;20661;-74
2024/01/31 05:32:42;;;;;;;0.70;0.70;;;6.50;99.90;;;;;;4987116;28;20301;-74
2024/01/31 05:35:09;;;;;;;0.50;0.50;;;6.60;99.90;;;;;;4987961;28;20210;-73
2024/01/31 05:37:36;;;;;;;0.63;0.40;;;6.50;99.90;;;;;;4988027;28;20214;-74
2024/01/31 05:40:04;;;;;;;0.60;0.60;;;6.50;99.90;;;;;;4987773;28;20293;-74
2024/01/31 05:42:31;;;;;;;0.60;0.60;;;6.50;99.90;;;;;;4987506;28;20763;-73
2024/01/31 05:44:58;;;;;;;0.70;0.70;;;6.60;99.90;;;;;;4987641;28;20561;-74
2024/01/31 05:47:25;;;;;;;1.13;0.50;;;6.50;99.90;;;;;;4987448;28;20289;-73
2024/01/31 05:49:53;;;;;;;12.63;9.03;;;6.50;99.90;;;;;;4987456;28;20652;-73
2024/01/31 05:52:20;;;;;;;1.93;1.83;;;6.60;99.90;;;;;;4986997;28;20732;-74
2024/01/31 05:54:47;;;;;;;0.80;0.80;;;6.60;99.90;;;;;;4984186;28;20325;-74
2024/01/31 05:57:14;;;;;;;1.27;0.53;;;6.50;99.90;;;;;;4985441;28;20212;-74
2024/01/31 05:59:41;;;;;;;0.50;0.50;;;6.50;99.90;;;;;;4987424;28;20252;-74
2024/01/31 06:02:09;;;;;;;0.40;0.40;;;6.50;99.90;;;;;;4987447;28;20245;-74
2024/01/31 06:04:35;;;;;;;0.30;0.30;;;6.50;99.90;;;;;;4987382;28;20289;-73
2024/01/31 06:07:04;;;;;;;2.57;2.37;;;6.50;99.90;;;;;;4987419;28;20216;-74
2024/01/31 06:09:31;;;;;;;0.63;0.53;;;6.50;99.90;;;;;;4987552;28;20614;-74
2024/01/31 06:11:58;;;;;;;0.87;0.50;;;6.50;99.90;;;;;;4987677;28;20289;-74
2024/01/31 06:14:24;;;;;;;0.60;0.60;;;6.50;99.90;;;;;;4987459;28;20289;-74
2024/01/31 06:16:51;;;;;;;0.47;0.40;;;6.50;99.90;;;;;;4987558;28;20260;-74
2024/01/31 06:19:18;;;;;;;0.97;0.50;;;6.50;99.90;;;;;;4987123;28;21041;-74
2024/01/31 06:21:45;;;;;;;0.70;0.70;;;6.50;99.90;;;;;;4987418;28;20304;-73
2024/01/31 06:24:13;;;;;;;0.50;0.50;;;6.40;99.90;;;;;;4987589;28;20545;-74
2024/01/31 06:26:41;;;;;;;1.07;0.50;;;6.40;99.90;;;;;;4986331;28;20712;-73
2024/01/31 06:29:10;;;;;;;0.40;0.40;;;6.40;99.90;;;;;;4986992;28;20618;-73
2024/01/31 06:31:46;;;;;;;0.30;0.30;;;6.30;99.90;;;;;;4988083;28;20213;-73
2024/01/31 06:34:12;;;;;;;0.33;0.33;;;6.30;99.90;;;;;;4991177;28;20198;-73
2024/01/31 06:36:39;;;;;;;1.90;0.60;;;6.30;99.90;;;;;;4990851;28;20296;-73
2024/01/31 06:39:06;;;;;;;0.23;0.23;;;6.40;99.90;;;;;;4991102;28;20219;-73
2024/01/31 06:41:36;;;;;;;0.60;0.30;;;6.40;99.90;;;;;;4991153;28;20297;-73
2024/01/31 06:44:03;;;;;;;0.40;0.40;;;6.30;99.90;;;;;;4990970;28;20216;-73
2024/01/31 06:46:30;;;;;;;0.40;0.37;;;6.40;99.90;;;;;;4990636;28;20768;-73
2024/01/31 06:48:58;;;;;;;0.40;0.40;;;6.40;99.90;;;;;;4990691;28;20779;-73
2024/01/31 06:51:25;;;;;;;0.20;0.20;;;6.40;99.90;;;;;;4990563;28;20206;-73
2024/01/31 06:53:52;;;;;;;0.23;0.23;;;6.40;99.90;;;;;;4990327;28;20696;-74
2024/01/31 06:56:19;;;;;;;0.77;0.20;;;6.30;99.90;;;;;;4971500;28;20217;-74
2024/01/31 06:58:49;;;;;;;1.50;0.93;;;6.30;99.90;;;;;;4971044;28;20210;-73
2024/01/31 07:01:16;;;;;;;1.80;1.03;;;6.30;99.90;;;;;;4971063;28;20210;-73
2024/01/31 07:03:43;;;;;;;0.33;0.33;;;6.30;99.90;;;;;;4971332;28;20236;-74
2024/01/31 07:06:11;;;;;;;0.50;0.50;;;6.20;99.90;;;;;;4983290;28;20673;-75
2024/01/31 07:08:39;;;;;;;0.43;0.43;;;6.20;99.90;;;;;;4990474;28;20237;-75
2024/01/31 07:11:09;;;;;;;2.83;1.90;;;6.20;99.90;;;;;;4990782;28;20245;-74
2024/01/31 07:13:36;;;;;;;3.70;3.40;;;6.20;99.90;;;;;;4990527;28;20217;-74
2024/01/31 07:16:07;;;;;;;13.23;8.73;;;6.20;99.90;;;;;;4990317;28;20752;-74
2024/01/31 07:18:33;;;;;;;0.77;0.77;;;6.20;99.90;;;;;;4989944;28;20202;-73
2024/01/31 07:21:00;;;;;;;1.33;1.07;;;6.10;99.90;;;;;;4990279;28;20217;-75
2024/01/31 07:23:27;;;;;;;0.10;0.10;;;6.10;99.90;;;;;;4989843;28;20206;-75
2024/01/31 07:25:54;;;;;;;0.93;0.63;;;6.10;99.90;;;;;;4989804;28;20313;-75
2024/01/31 07:28:22;;;;;;;1.70;0.60;;;6.00;99.90;;;;;;4989793;28;20284;-75
2024/01/31 07:30:49;;;;;;;0.63;0.60;;;6.10;99.90;;;;;;4990458;28;20213;-75
2024/01/31 07:33:17;;;;;;;1.43;0.90;;;6.10;99.90;;;;;;4990073;28;20729;-74
2024/01/31 07:35:44;;;;;;;0.60;0.30;;;6.00;99.90;;;;;;4990247;28;20214;-74
2024/01/31 07:38:11;;;;;;;0.43;0.43;;;6.10;99.90;;;;;;4990109;28;20304;-74
2024/01/31 07:40:38;;;;;;;1.30;0.70;;;6.10;99.90;;;;;;4990067;28;20378;-74
2024/01/31 07:43:05;;;;;;;0.20;0.20;;;6.10;99.90;;;;;;4989700;28;20301;-74
2024/01/31 07:45:32;;;;;;;1.07;0.40;;;6.00;99.90;;;;;;4989637;28;20233;-74
2024/01/31 07:47:59;;;;;;;0.50;0.30;;;6.00;99.90;;;;;;4990042;28;20861;-74
2024/01/31 07:50:27;;;;;;;2.00;0.40;;;6.00;99.90;;;;;;4989592;28;20213;-74
2024/01/31 07:52:54;;;;;;;1.23;0.30;;;5.90;99.90;;;;;;4989525;28;20234;-74
2024/01/31 07:55:21;;;;;;;0.30;0.20;;;5.90;99.90;;;;;;4989397;28;20218;-74
2024/01/31 07:57:48;;;;;;;0.83;0.20;;;5.90;99.90;;;;;;4989852;28;20276;-74
2024/01/31 08:00:18;;;;;;;1.93;0.47;;;6.00;99.90;;;;;;4989985;28;20293;-74
2024/01/31 08:02:46;;;;;;;0.50;0.33;;;5.90;99.90;;;;;;4989698;28;20657;-74
2024/01/31 08:05:13;;;;;;;0.30;0.30;;;5.90;99.90;;;;;;4989458;28;20745;-74
2024/01/31 08:07:45;;;;;;;0.77;0.40;;;5.90;99.90;;;;;;4989408;28;20293;-74
2024/01/31 08:10:12;;;;;;;0.70;0.47;;;5.90;99.90;;;;;;4989246;28;20249;-74
2024/01/31 08:12:39;;;;;;;0.67;0.50;;;6.00;99.90;;;;;;4989305;28;20221;-74
2024/01/31 08:15:06;;;;;;;0.50;0.30;;;6.00;99.90;;;;;;4989512;28;20218;-74
2024/01/31 08:17:33;;;;;;;0.77;0.50;;;6.00;99.90;;;;;;4989510;28;20675;-74
2024/01/31 08:20:00;;;;;;;1.77;0.90;;;6.00;99.90;;;;;;4989074;28;20601;-74
2024/01/31 08:22:27;;;;;;;1.80;1.47;;;6.10;99.90;;;;;;4989366;28;20730;-74
2024/01/31 08:24:55;;;;;;;1.17;0.60;;;6.10;99.90;;;;;;4981157;28;20219;-74
2024/01/31 08:27:23;;;;;;;1.03;0.50;;;6.00;99.90;;;;;;4969267;28;20341;-74
2024/01/31 08:29:51;;;;;;;1.43;0.80;;;6.10;99.90;;;;;;4969866;28;20337;-74
2024/01/31 08:32:18;;;;;;;0.30;0.20;;;6.10;99.90;;;;;;4969747;28;20215;-73
2024/01/31 08:34:45;;;;;;;0.77;0.30;;;6.00;99.90;;;;;;4969803;28;20234;-74
2024/01/31 08:37:12;;;;;;;1.27;0.20;;;5.90;99.90;;;;;;4969509;28;20285;-74
2024/01/31 08:39:39;;;;;;;0.50;0.30;;;5.90;99.90;;;;;;4969506;28;20246;-74
2024/01/31 08:42:07;;;;;;;0.53;0.20;;;5.90;99.90;;;;;;4975798;28;20285;-74
2024/01/31 08:44:34;;;;;;;2.40;0.50;;;6.00;99.90;;;;;;4988597;28;20304;-74
2024/01/31 08:47:01;;;;;;;0.83;0.30;;;6.00;99.90;;;;;;4989293;28;20297;-74
2024/01/31 08:49:27;;;;;;;2.53;1.90;;;6.00;99.90;;;;;;4988843;28;20329;-74
2024/01/31 08:51:54;;;;;;;1.00;0.60;;;6.00;99.90;;;;;;4988308;28;20206;-73
2024/01/31 08:54:21;;;;;;;0.43;0.43;;;6.00;99.90;;;;;;4988061;28;20305;-74
2024/01/31 08:56:48;;;;;;;0.93;0.40;;;6.00;99.90;;;;;;4988831;28;20294;-74
2024/01/31 08:59:17;;;;;;;0.30;0.30;;;6.00;99.90;;;;;;4988555;28;20306;-74
2024/01/31 09:01:44;;;;;;;0.90;0.43;;;6.10;99.90;;;;;;4988588;28;20600;-74
2024/01/31 09:04:11;;;;;;;0.87;0.70;;;6.10;99.90;;;;;;4988544;28;20218;-74
2024/01/31 09:06:39;;;;;;;0.87;0.47;;;6.10;99.90;;;;;;4988200;28;20260;-74
2024/01/31 09:09:06;;;;;;;0.47;0.20;;;6.20;99.90;;;;;;4988513;28;20280;-74
2024/01/31 09:11:33;;;;;;;1.50;0.37;;;6.20;99.90;;;;;;4988563;28;20203;-74
2024/01/31 09:14:00;;;;;;;1.30;0.40;;;6.20;99.90;;;;;;4982672;28;20214;-74
2024/01/31 09:16:28;;;;;;;0.50;0.40;;;6.10;99.90;;;;;;4983570;28;20198;-74
2024/01/31 09:18:55;;;;;;;0.50;0.30;;;6.10;99.90;;;;;;4988109;28;20269;-74
2024/01/31 09:21:26;;;;;;;0.53;0.40;;;6.20;99.90;;;;;;4987967;28;20236;-74
2024/01/31 09:23:53;;;;;;;0.50;0.47;;;6.20;99.90;;;;;;4987985;28;20248;-75
2024/01/31 09:26:20;;;;;;;0.47;0.30;;;6.20;99.90;;;;;;4987996;28;20324;-74
2024/01/31 09:28:47;;;;;;;0.37;0.30;;;5.90;99.90;;;;;;4987914;28;20210;-74
2024/01/31 09:31:21;;;;;;;0.80;0.30;;;5.90;99.90;;;;;;4988055;28;20214;-74
2024/01/31 09:33:49;;;;;;;0.40;0.40;;;5.90;99.90;;;;;;4987755;28;20202;-74
2024/01/31 09:36:16;;;;;;;0.83;0.57;;;5.80;99.90;;;;;;4988170;28;20272;-74
2024/01/31 09:38:44;;;;;;;0.80;0.50;;;5.80;99.90;;;;;;4987582;28;20595;-74
2024/01/31 09:41:11;;;;;;;0.60;0.60;;;5.80;99.90;;;;;;4988010;28;20258;-74
2024/01/31 09:43:38;;;;;;;1.13;0.73;;;5.90;99.90;;;;;;4987516;28;20743;-74
2024/01/31 09:46:07;;;;;;;0.40;0.40;;;6.10;99.90;;;;;;4988071;28;20300;-74
2024/01/31 09:48:34;;;;;;;0.80;0.63;;;6.20;99.90;;;;;;4987879;28;20552;-74
2024/01/31 09:51:02;;;;;;;0.70;0.37;;;6.30;99.90;;;;;;4987817;28;20301;-74
2024/01/31 09:53:34;;;;;;;0.60;0.20;;;6.30;99.90;;;;;;4987021;28;20292;-74
2024/01/31 09:56:01;;;;;;;0.50;0.40;;;6.20;99.90;;;;;;4987705;28;20210;-74
2024/01/31 09:58:28;;;;;;;0.33;0.33;;;6.20;99.90;;;;;;4987234;28;20220;-74
2024/01/31 10:00:56;;;;;;;0.47;0.40;;;6.20;99.90;;;;;;4987479;28;20304;-74
2024/01/31 10:03:23;;;;;;;0.30;0.30;;;6.20;99.90;;;;;;4987118;28;20712;-74
2024/01/31 10:05:50;;;;;;;0.73;0.40;;;6.30;99.90;;;;;;4987315;28;20297;-74
2024/01/31 10:08:18;;;;;;;0.70;0.30;;;6.20;99.90;;;;;;4987459;28;20297;-74
2024/01/31 10:10:45;;;;;;;0.53;0.30;;;6.20;99.90;;;;;;4987295;28;20646;-74
2024/01/31 10:13:12;;;;;;;1.90;0.37;;;6.40;99.90;;;;;;4987738;28;20214;-74
2024/01/31 10:15:42;;;;;;;0.53;0.40;;;6.40;99.90;;;;;;4987202;28;20297;-74
2024/01/31 10:18:09;;;;;;;1.33;0.30;;;6.40;99.90;;;;;;4987545;28;20210;-74
2024/01/31 10:20:36;;;;;;;1.83;0.63;;;6.30;99.90;;;;;;4987205;28;20242;-74
2024/01/31 10:23:03;;;;;;;0.67;0.30;;;6.30;99.90;;;;;;4987014;28;20297;-74
2024/01/31 10:25:32;;;;;;;0.53;0.30;;;6.30;99.90;;;;;;4986877;28;20839;-74
2024/01/31 10:28:00;;;;;;;1.50;0.43;;;6.30;99.90;;;;;;4987763;28;20304;-74
2024/01/31 10:30:27;;;;;;;1.17;0.50;;;6.30;99.90;;;;;;4986960;28;20328;-74
2024/01/31 10:32:55;;;;;;;1.70;0.80;;;6.20;99.90;;;;;;4987375;28;20300;-74
2024/01/31 10:35:22;;;;;;;0.70;0.37;;;6.30;99.90;;;;;;4987124;28;20776;-74
2024/01/31 10:37:50;;;;;;;1.40;0.80;;;6.20;99.90;;;;;;4986825;28;20250;-74
2024/01/31 10:40:19;;;;;;;1.57;1.47;;;6.20;99.90;;;;;;4987672;28;20289;-74
2024/01/31 10:42:48;;;;;;;4.20;1.77;;;6.10;99.90;;;;;;4987697;28;20214;-74
2024/01/31 10:45:16;;;;;;;1.23;0.47;;;6.10;99.90;;;;;;4987493;28;20587;-74
2024/01/31 10:47:44;;;;;;;2.27;1.10;;;6.00;99.90;;;;;;4987046;28;20297;-74
2024/01/31 10:50:11;;;;;;;2.13;0.77;;;6.10;99.90;;;;;;4987603;28;20269;-74
2024/01/31 10:52:40;;;;;;;2.07;0.67;;;6.10;99.90;;;;;;4986993;28;20329;-74
2024/01/31 10:55:09;;;;;;;1.93;0.63;;;6.10;99.90;;;;;;4987488;28;20297;-74
2024/01/31 10:57:37;;;;;;;1.83;0.80;;;6.10;99.90;;;;;;4987309;28;20716;-74
2024/01/31 11:00:09;;;;;;;3.00;1.10;;;6.20;99.90;;;;;;4987061;28;20249;-74
2024/01/31 11:02:36;;;;;;;2.73;1.00;;;6.30;99.90;;;;;;4987325;28;20209;-74
2024/01/31 11:05:04;;;;;;;1.47;1.07;;;6.40;99.90;;;;;;4986910;28;20210;-74
2024/01/31 11:07:33;;;;;;;1.40;0.80;;;6.40;99.90;;;;;;4986635;28;20226;-74
2024/01/31 11:10:00;;;;;;;2.53;0.60;;;6.40;99.90;;;;;;4987686;28;20248;-74
2024/01/31 11:12:29;;;;;;;2.73;1.07;;;6.40;99.90;;;;;;4987345;28;20301;-74
2024/01/31 11:14:58;;;;;;;2.80;1.23;;;6.40;99.90;;;;;;4987246;28;20207;-74
2024/01/31 11:17:33;;;;;;;2.40;1.50;;;6.20;99.90;;;;;;4987679;28;20213;-74
2024/01/31 11:20:01;;;;;;;2.07;1.37;;;6.30;99.90;;;;;;4990774;28;20201;-74
2024/01/31 11:22:28;;;;;;;6.47;1.30;;;6.30;99.90;;;;;;4990138;28;20214;-73
2024/01/31 11:24:59;;;;;;;1.70;1.00;;;6.00;99.90;;;;;;4990297;28;20932;-74
2024/01/31 11:27:26;;;;;;;2.77;0.90;;;6.00;99.90;;;;;;4990411;28;20261;-74
2024/01/31 11:29:53;;;;;;;1.57;0.83;;;5.90;99.90;;;;;;4990706;28;20237;-74
2024/01/31 11:32:21;;;;;;;2.17;1.20;;;5.80;99.90;;;;;;4989839;28;20301;-74
2024/01/31 11:34:58;;;;;;;1.53;0.83;;;5.80;99.90;;;;;;4990302;28;20202;-74
2024/01/31 11:37:25;;;;;;;4.03;1.17;;;5.80;99.90;;;;;;4990142;28;20848;-74
2024/01/31 11:39:52;;;;;;;3.63;1.00;;;5.80;99.90;;;;;;4990080;28;20225;-74
2024/01/31 11:42:20;;;;;;;1.40;0.90;;;5.80;99.90;;;;;;4990122;28;20300;-74
2024/01/31 11:44:47;;;;;;;1.87;1.30;;;5.80;99.90;;;;;;4990356;28;20300;-74
2024/01/31 11:47:16;;;;;;;3.27;1.07;;;5.80;99.90;;;;;;4989909;28;20206;-74
2024/01/31 11:49:43;;;;;;;2.23;0.93;;;5.80;99.90;;;;;;4989785;28;20749;-74
2024/01/31 11:52:11;;;;;;;2.67;1.10;;;5.80;99.90;;;;;;4989392;28;20720;-73
2024/01/31 11:54:39;;;;;;;6.00;1.23;;;5.90;99.90;;;;;;4989405;28;20297;-74
2024/01/31 11:57:07;;;;;;;3.63;1.17;;;5.90;99.90;;;;;;4990265;28;20210;-74
2024/01/31 11:59:34;;;;;;;1.77;1.13;;;5.90;99.90;;;;;;4989505;28;20242;-74
2024/01/31 12:02:01;;;;;;;4.60;1.30;;;5.90;99.90;;;;;;4989503;28;20639;-74
2024/01/31 12:04:28;;;;;;;3.17;1.00;;;5.90;99.90;;;;;;4989547;28;20233;-74
2024/01/31 12:07:04;;;;;;;3.73;1.37;;;5.90;99.90;;;;;;4989440;28;20672;-74
2024/01/31 12:09:33;;;;;;;4.70;1.10;;;5.90;99.90;;;;;;4989230;28;20198;-74
2024/01/31 12:12:00;;;;;;;3.30;1.13;;;5.90;99.90;;;;;;4989586;28;20385;-73
2024/01/31 12:14:27;;;;;;;1.40;0.93;;;5.90;99.90;;;;;;4989575;28;20206;-74
2024/01/31 12:16:54;;;;;;;1.87;1.30;;;6.00;99.90;;;;;;4989321;28;20669;-74
2024/01/31 12:19:23;;;;;;;4.80;1.03;;;5.90;99.90;;;;;;4989022;28;20210;-73
2024/01/31 12:21:50;;;;;;;2.97;0.90;;;6.00;99.90;;;;;;4989479;28;20210;-74
2024/01/31 12:24:17;;;;;;;5.80;1.20;;;5.90;99.90;;;;;;4986273;28;20214;-74
2024/01/31 12:26:45;;;;;;;1.60;0.97;;;5.90;99.90;;;;;;4969670;28;20599;-74
2024/01/31 12:29:12;;;;;;;1.23;1.10;;;5.90;99.90;;;;;;4968767;28;20509;-74
2024/01/31 12:31:39;;;;;;;3.00;0.90;;;5.90;99.90;;;;;;4969572;28;20241;-74
2024/01/31 12:34:06;;;;;;;2.07;1.10;;;6.00;99.90;;;;;;4969752;28;20206;-74
2024/01/31 12:36:33;;;;;;;2.40;1.00;;;6.00;99.90;;;;;;4969200;28;20651;-74
2024/01/31 12:39:00;;;;;;;3.00;1.20;;;6.00;99.90;;;;;;4969876;28;20313;-74
2024/01/31 12:41:27;;;;;;;3.27;1.10;;;6.00;99.90;;;;;;4969325;28;20655;-74
2024/01/31 12:43:55;;;;;;;4.53;1.10;;;6.00;99.90;;;;;;4983050;28;20214;-74
2024/01/31 12:46:24;;;;;;;2.07;0.77;;;6.00;99.90;;;;;;4988897;28;20206;-74
2024/01/31 12:48:51;;;;;;;1.63;1.17;;;6.10;99.90;;;;;;4988795;28;20242;-74
2024/01/31 12:51:18;;;;;;;2.77;1.07;;;6.20;99.90;;;;;;4988131;28;20230;-74
2024/01/31 12:53:45;;;;;;;1.93;0.70;;;6.20;99.90;;;;;;4988382;28;20723;-74
2024/01/31 12:56:12;;;;;;;4.33;1.33;;;6.20;99.90;;;;;;4970023;28;20272;-74
2024/01/31 12:58:39;;;;;;;2.77;1.00;;;6.10;99.90;;;;;;4969444;28;20213;-74